Saint Francis River (Missouri), Wappapello (07039500)

StateMissouriLatestGood (718 cfs)
RiverSaint Francis RiverRatingObservedEstimated
Updated2026-05-10 11:30 (32 minutes ago)Flood - The river is flooding. Obstacles can be treacherous or deadly. The river should be avoided at this stage for casual trips and definitely for the inexperienced. Trips should be attempted only with protective gear and equipment.Flood(none)7359
Discharge718 cfs (median: 2350 cfs)High - The river is high and potentially dangerous, especially for the young and / or inexperienced. Normal stream obstacles are sometimes difficult to navigate. Extended distances can be attempted, but canoe travel may not be advisable.High(none)2348
Height7.07 feetGood - Conditions are ideal for a canoe or kayak. Boats typically will drag on fewer than one-quarter of riffles, if at all, and portages are unnecessary or rare. Normal float lengths can be attempted without a problem.Good(none)699
TrendRising (falling over 24 hours)Low - River is low but can still be floated. Some riffles are okay but most come with significant dragging and might need a portage. Float lengths should be reduced to accommodate low flow, dragging, and portages.Low(none)258
USGSExternal icon USGS Site (External icon Duck Duck Go Maps)Poor - River is too low to float comfortably. Most or all riffles will drag or must be portaged and some obstacles (such as slick shelf rock) cause undue problems. Avoid the river at this stage for casual paddling trips.Poor(none)40

Trending Data

Plot Image

Trips for Saint Francis River (Missouri), Wappapello (07039500)

DateStartEndDistanceConditionDischargeHeightFishingDetails

A total of 0 rows are displayed.

Condition Descriptions

Fishing Conditions

Fish Species

Notes

Classic Trip List

The classic River Trips application is still available for use. It is updated with the new system using a data retrofit. It is no longer maintained. The original River Trips application is no longer updated (as of 1 Dec 2016) but can be checked for errors or for the condition of the data before it was converted to the new system.

Gauge Data Table

ObservationHeightDischargeMaximum
Discharge
Minimum
Discharge
Mean
Discharge
P05P10P20P25P50
(Median)
P75P80P90P95
2026-05-10 11:30 7.07 718 10200 (2017) 40 (1948) 2850 40 64 417 599 2350 3950 4410 6640 9870
2026-05-10 11:00 7.06 715 10200 (2017) 40 (1948) 2850 40 64 417 599 2350 3950 4410 6640 9870
2026-05-10 10:30 7.06 715 10200 (2017) 40 (1948) 2850 40 64 417 599 2350 3950 4410 6640 9870
2026-05-10 10:00 7.07 718 10200 (2017) 40 (1948) 2850 40 64 417 599 2350 3950 4410 6640 9870
2026-05-10 09:30 7.06 715 10200 (2017) 40 (1948) 2850 40 64 417 599 2350 3950 4410 6640 9870
2026-05-10 09:00 7.07 718 10200 (2017) 40 (1948) 2850 40 64 417 599 2350 3950 4410 6640 9870
2026-05-10 08:30 7.07 718 10200 (2017) 40 (1948) 2850 40 64 417 599 2350 3950 4410 6640 9870
2026-05-10 08:00 7.07 718 10200 (2017) 40 (1948) 2850 40 64 417 599 2350 3950 4410 6640 9870
2026-05-10 07:30 7.07 718 10200 (2017) 40 (1948) 2850 40 64 417 599 2350 3950 4410 6640 9870
2026-05-10 07:00 7.07 718 10200 (2017) 40 (1948) 2850 40 64 417 599 2350 3950 4410 6640 9870
2026-05-10 06:30 7.07 718 10200 (2017) 40 (1948) 2850 40 64 417 599 2350 3950 4410 6640 9870
2026-05-10 06:00 7.07 718 10200 (2017) 40 (1948) 2850 40 64 417 599 2350 3950 4410 6640 9870
2026-05-10 05:30 7.07 718 10200 (2017) 40 (1948) 2850 40 64 417 599 2350 3950 4410 6640 9870
2026-05-10 05:00 7.07 718 10200 (2017) 40 (1948) 2850 40 64 417 599 2350 3950 4410 6640 9870
2026-05-10 04:30 7.07 718 10200 (2017) 40 (1948) 2850 40 64 417 599 2350 3950 4410 6640 9870
2026-05-10 04:00 7.08 721 10200 (2017) 40 (1948) 2850 40 64 417 599 2350 3950 4410 6640 9870
2026-05-10 03:30 7.08 721 10200 (2017) 40 (1948) 2850 40 64 417 599 2350 3950 4410 6640 9870
2026-05-10 03:00 7.08 721 10200 (2017) 40 (1948) 2850 40 64 417 599 2350 3950 4410 6640 9870
2026-05-10 02:30 7.08 721 10200 (2017) 40 (1948) 2850 40 64 417 599 2350 3950 4410 6640 9870
2026-05-10 02:00 7.08 721 10200 (2017) 40 (1948) 2850 40 64 417 599 2350 3950 4410 6640 9870
2026-05-10 01:30 7.08 721 10200 (2017) 40 (1948) 2850 40 64 417 599 2350 3950 4410 6640 9870
2026-05-10 01:00 7.08 721 10200 (2017) 40 (1948) 2850 40 64 417 599 2350 3950 4410 6640 9870
2026-05-10 00:30 7.09 724 10200 (2017) 40 (1948) 2850 40 64 417 599 2350 3950 4410 6640 9870
2026-05-10 00:00 7.08 721 10200 (2017) 40 (1948) 2850 40 64 417 599 2350 3950 4410 6640 9870
2026-05-09 23:30 7.08 721 10200 (2017) 40 (1948) 2850 40 64 417 599 2350 3950 4410 6640 9870
2026-05-09 23:00 7.09 724 10200 (2017) 40 (1948) 2850 40 64 417 599 2350 3950 4410 6640 9870
2026-05-09 22:30 7.09 724 10500 (1945) 40 (1948) 2890 40 65 482 627 2410 3850 4190 7660 10000
2026-05-09 22:00 7.09 724 10500 (1945) 40 (1948) 2890 40 65 482 627 2410 3850 4190 7660 10000
2026-05-09 21:30 7.09 724 10500 (1945) 40 (1948) 2890 40 65 482 627 2410 3850 4190 7660 10000
2026-05-09 21:00 7.10 726 10500 (1945) 40 (1948) 2890 40 65 482 627 2410 3850 4190 7660 10000
2026-05-09 20:30 7.09 724 10500 (1945) 40 (1948) 2890 40 65 482 627 2410 3850 4190 7660 10000
2026-05-09 20:00 7.10 726 10500 (1945) 40 (1948) 2890 40 65 482 627 2410 3850 4190 7660 10000
2026-05-09 19:30 7.10 726 10500 (1945) 40 (1948) 2890 40 65 482 627 2410 3850 4190 7660 10000
2026-05-09 19:00 7.10 726 10500 (1945) 40 (1948) 2890 40 65 482 627 2410 3850 4190 7660 10000
2026-05-09 18:30 7.11 729 10500 (1945) 40 (1948) 2890 40 65 482 627 2410 3850 4190 7660 10000
2026-05-09 18:00 7.11 729 10500 (1945) 40 (1948) 2890 40 65 482 627 2410 3850 4190 7660 10000
2026-05-09 17:30 7.11 729 10500 (1945) 40 (1948) 2890 40 65 482 627 2410 3850 4190 7660 10000
2026-05-09 17:00 7.11 729 10500 (1945) 40 (1948) 2890 40 65 482 627 2410 3850 4190 7660 10000
2026-05-09 16:30 7.12 732 10500 (1945) 40 (1948) 2890 40 65 482 627 2410 3850 4190 7660 10000
2026-05-09 16:00 7.13 735 10500 (1945) 40 (1948) 2890 40 65 482 627 2410 3850 4190 7660 10000
2026-05-09 15:30 7.13 735 10500 (1945) 40 (1948) 2890 40 65 482 627 2410 3850 4190 7660 10000
2026-05-09 15:00 7.13 735 10500 (1945) 40 (1948) 2890 40 65 482 627 2410 3850 4190 7660 10000
2026-05-09 14:30 7.14 738 10500 (1945) 40 (1948) 2890 40 65 482 627 2410 3850 4190 7660 10000
2026-05-09 14:00 7.14 738 10500 (1945) 40 (1948) 2890 40 65 482 627 2410 3850 4190 7660 10000
2026-05-09 13:30 7.15 741 10500 (1945) 40 (1948) 2890 40 65 482 627 2410 3850 4190 7660 10000
2026-05-09 13:00 7.15 741 10500 (1945) 40 (1948) 2890 40 65 482 627 2410 3850 4190 7660 10000
2026-05-09 12:30 7.16 744 10500 (1945) 40 (1948) 2890 40 65 482 627 2410 3850 4190 7660 10000
2026-05-09 12:00 7.16 744 10500 (1945) 40 (1948) 2890 40 65 482 627 2410 3850 4190 7660 10000
2026-05-09 11:30 7.17 746 10500 (1945) 40 (1948) 2890 40 65 482 627 2410 3850 4190 7660 10000
2026-05-09 11:00 7.17 746 10500 (1945) 40 (1948) 2890 40 65 482 627 2410 3850 4190 7660 10000
2026-05-09 10:30 7.18 749 10500 (1945) 40 (1948) 2890 40 65 482 627 2410 3850 4190 7660 10000
2026-05-09 10:00 7.19 752 10500 (1945) 40 (1948) 2890 40 65 482 627 2410 3850 4190 7660 10000
2026-05-09 09:30 7.20 755 10500 (1945) 40 (1948) 2890 40 65 482 627 2410 3850 4190 7660 10000
2026-05-09 09:00 7.21 758 10500 (1945) 40 (1948) 2890 40 65 482 627 2410 3850 4190 7660 10000
2026-05-09 08:30 7.22 761 10500 (1945) 40 (1948) 2890 40 65 482 627 2410 3850 4190 7660 10000
2026-05-09 08:00 7.22 761 10500 (1945) 40 (1948) 2890 40 65 482 627 2410 3850 4190 7660 10000
2026-05-09 07:30 7.24 767 10500 (1945) 40 (1948) 2890 40 65 482 627 2410 3850 4190 7660 10000
2026-05-09 07:00 7.25 770 10500 (1945) 40 (1948) 2890 40 65 482 627 2410 3850 4190 7660 10000
2026-05-09 06:30 7.26 772 10500 (1945) 40 (1948) 2890 40 65 482 627 2410 3850 4190 7660 10000
2026-05-09 06:00 7.28 778 10500 (1945) 40 (1948) 2890 40 65 482 627 2410 3850 4190 7660 10000
2026-05-09 05:30 7.29 781 10500 (1945) 40 (1948) 2890 40 65 482 627 2410 3850 4190 7660 10000
2026-05-09 05:00 7.31 787 10500 (1945) 40 (1948) 2890 40 65 482 627 2410 3850 4190 7660 10000
2026-05-09 04:30 7.32 790 10500 (1945) 40 (1948) 2890 40 65 482 627 2410 3850 4190 7660 10000
2026-05-09 04:00 7.33 793 10500 (1945) 40 (1948) 2890 40 65 482 627 2410 3850 4190 7660 10000
2026-05-09 03:30 7.35 799 10500 (1945) 40 (1948) 2890 40 65 482 627 2410 3850 4190 7660 10000
2026-05-09 03:00 7.37 805 10500 (1945) 40 (1948) 2890 40 65 482 627 2410 3850 4190 7660 10000
2026-05-09 02:30 7.39 810 10500 (1945) 40 (1948) 2890 40 65 482 627 2410 3850 4190 7660 10000
2026-05-09 02:00 7.42 819 10500 (1945) 40 (1948) 2890 40 65 482 627 2410 3850 4190 7660 10000
2026-05-09 01:30 7.43 822 10500 (1945) 40 (1948) 2890 40 65 482 627 2410 3850 4190 7660 10000
2026-05-09 01:00 7.46 831 10500 (1945) 40 (1948) 2890 40 65 482 627 2410 3850 4190 7660 10000
2026-05-09 00:30 7.49 840 10500 (1945) 40 (1948) 2890 40 65 482 627 2410 3850 4190 7660 10000
2026-05-09 00:00 7.52 849 10500 (1945) 40 (1948) 2890 40 65 482 627 2410 3850 4190 7660 10000
2026-05-08 23:30 7.55 858 10500 (1945) 40 (1948) 2890 40 65 482 627 2410 3850 4190 7660 10000
2026-05-08 23:00 7.58 867 10500 (1945) 40 (1948) 2890 40 65 482 627 2410 3850 4190 7660 10000
2026-05-08 22:30 7.62 879 10800 (1945) 40 (1948) 2940 40 57 571 675 2420 3920 4130 8540 10000
2026-05-08 22:00 7.66 892 10800 (1945) 40 (1948) 2940 40 57 571 675 2420 3920 4130 8540 10000
2026-05-08 21:30 7.70 904 10800 (1945) 40 (1948) 2940 40 57 571 675 2420 3920 4130 8540 10000
2026-05-08 21:00 7.75 919 10800 (1945) 40 (1948) 2940 40 57 571 675 2420 3920 4130 8540 10000
2026-05-08 20:30 7.79 932 10800 (1945) 40 (1948) 2940 40 57 571 675 2420 3920 4130 8540 10000
2026-05-08 20:00 7.85 950 10800 (1945) 40 (1948) 2940 40 57 571 675 2420 3920 4130 8540 10000
2026-05-08 19:30 7.91 965 10800 (1945) 40 (1948) 2940 40 57 571 675 2420 3920 4130 8540 10000
2026-05-08 19:00 7.97 976 10800 (1945) 40 (1948) 2940 40 57 571 675 2420 3920 4130 8540 10000
2026-05-08 18:30 8.05 991 10800 (1945) 40 (1948) 2940 40 57 571 675 2420 3920 4130 8540 10000
2026-05-08 18:00 8.12 1000 10800 (1945) 40 (1948) 2940 40 57 571 675 2420 3920 4130 8540 10000
2026-05-08 17:30 8.21 1020 10800 (1945) 40 (1948) 2940 40 57 571 675 2420 3920 4130 8540 10000
2026-05-08 17:00 8.31 1040 10800 (1945) 40 (1948) 2940 40 57 571 675 2420 3920 4130 8540 10000
2026-05-08 16:30 8.42 1060 10800 (1945) 40 (1948) 2940 40 57 571 675 2420 3920 4130 8540 10000
2026-05-08 16:00 8.55 1090 10800 (1945) 40 (1948) 2940 40 57 571 675 2420 3920 4130 8540 10000
2026-05-08 15:30 8.71 1120 10800 (1945) 40 (1948) 2940 40 57 571 675 2420 3920 4130 8540 10000
2026-05-08 15:00 9.01 1170 10800 (1945) 40 (1948) 2940 40 57 571 675 2420 3920 4130 8540 10000
2026-05-08 14:30 9.01 1170 10800 (1945) 40 (1948) 2940 40 57 571 675 2420 3920 4130 8540 10000
2026-05-08 14:00 9.00 1170 10800 (1945) 40 (1948) 2940 40 57 571 675 2420 3920 4130 8540 10000
2026-05-08 13:30 9.01 1170 10800 (1945) 40 (1948) 2940 40 57 571 675 2420 3920 4130 8540 10000
2026-05-08 13:00 9.01 1170 10800 (1945) 40 (1948) 2940 40 57 571 675 2420 3920 4130 8540 10000
2026-05-08 12:30 9.02 1180 10800 (1945) 40 (1948) 2940 40 57 571 675 2420 3920 4130 8540 10000
2026-05-08 12:00 9.03 1180 10800 (1945) 40 (1948) 2940 40 57 571 675 2420 3920 4130 8540 10000
2026-05-08 11:30 9.03 1180 10800 (1945) 40 (1948) 2940 40 57 571 675 2420 3920 4130 8540 10000
2026-05-08 11:00 9.04 1180 10800 (1945) 40 (1948) 2940 40 57 571 675 2420 3920 4130 8540 10000
2026-05-08 10:30 9.04 1180 10800 (1945) 40 (1948) 2940 40 57 571 675 2420 3920 4130 8540 10000
2026-05-08 10:00 9.03 1180 10800 (1945) 40 (1948) 2940 40 57 571 675 2420 3920 4130 8540 10000
2026-05-08 09:30 9.04 1180 10800 (1945) 40 (1948) 2940 40 57 571 675 2420 3920 4130 8540 10000
2026-05-08 09:00 9.05 1180 10800 (1945) 40 (1948) 2940 40 57 571 675 2420 3920 4130 8540 10000
2026-05-08 08:30 9.06 1180 10800 (1945) 40 (1948) 2940 40 57 571 675 2420 3920 4130 8540 10000
2026-05-08 08:00 9.05 1180 10800 (1945) 40 (1948) 2940 40 57 571 675 2420 3920 4130 8540 10000
2026-05-08 07:30 9.05 1180 10800 (1945) 40 (1948) 2940 40 57 571 675 2420 3920 4130 8540 10000
2026-05-08 07:00 9.06 1180 10800 (1945) 40 (1948) 2940 40 57 571 675 2420 3920 4130 8540 10000
2026-05-08 06:30 9.07 1190 10800 (1945) 40 (1948) 2940 40 57 571 675 2420 3920 4130 8540 10000
2026-05-08 06:00 9.07 1190 10800 (1945) 40 (1948) 2940 40 57 571 675 2420 3920 4130 8540 10000
2026-05-08 05:30 9.08 1190 10800 (1945) 40 (1948) 2940 40 57 571 675 2420 3920 4130 8540 10000
2026-05-08 05:00 9.08 1190 10800 (1945) 40 (1948) 2940 40 57 571 675 2420 3920 4130 8540 10000
2026-05-08 04:30 9.09 1190 10800 (1945) 40 (1948) 2940 40 57 571 675 2420 3920 4130 8540 10000
2026-05-08 04:00 9.11 1190 10800 (1945) 40 (1948) 2940 40 57 571 675 2420 3920 4130 8540 10000
2026-05-08 03:30 9.10 1190 10800 (1945) 40 (1948) 2940 40 57 571 675 2420 3920 4130 8540 10000
2026-05-08 03:00 9.12 1200 10800 (1945) 40 (1948) 2940 40 57 571 675 2420 3920 4130 8540 10000
2026-05-08 02:30 9.12 1200 10800 (1945) 40 (1948) 2940 40 57 571 675 2420 3920 4130 8540 10000
2026-05-08 02:00 9.14 1200 10800 (1945) 40 (1948) 2940 40 57 571 675 2420 3920 4130 8540 10000
2026-05-08 01:30 9.15 1200 10800 (1945) 40 (1948) 2940 40 57 571 675 2420 3920 4130 8540 10000
2026-05-08 01:00 9.15 1200 10800 (1945) 40 (1948) 2940 40 57 571 675 2420 3920 4130 8540 10000
2026-05-08 00:30 9.17 1210 10800 (1945) 40 (1948) 2940 40 57 571 675 2420 3920 4130 8540 10000
2026-05-08 00:00 9.18 1210 10800 (1945) 40 (1948) 2940 40 57 571 675 2420 3920 4130 8540 10000
2026-05-07 23:30 9.19 1210 10800 (1945) 40 (1948) 2940 40 57 571 675 2420 3920 4130 8540 10000
2026-05-07 23:00 9.21 1210 10800 (1945) 40 (1948) 2940 40 57 571 675 2420 3920 4130 8540 10000
2026-05-07 22:30 9.22 1220 11400 (2017) 40 (1948) 2930 40 54 480 758 2410 3900 4140 7470 9920
2026-05-07 22:00 9.24 1220 11400 (2017) 40 (1948) 2930 40 54 480 758 2410 3900 4140 7470 9920
2026-05-07 21:30 9.26 1220 11400 (2017) 40 (1948) 2930 40 54 480 758 2410 3900 4140 7470 9920
2026-05-07 21:00 9.27 1230 11400 (2017) 40 (1948) 2930 40 54 480 758 2410 3900 4140 7470 9920
2026-05-07 20:30 9.29 1230 11400 (2017) 40 (1948) 2930 40 54 480 758 2410 3900 4140 7470 9920
2026-05-07 20:00 9.31 1230 11400 (2017) 40 (1948) 2930 40 54 480 758 2410 3900 4140 7470 9920
2026-05-07 19:30 9.34 1240 11400 (2017) 40 (1948) 2930 40 54 480 758 2410 3900 4140 7470 9920
2026-05-07 19:00 9.36 1240 11400 (2017) 40 (1948) 2930 40 54 480 758 2410 3900 4140 7470 9920
2026-05-07 18:30 9.39 1250 11400 (2017) 40 (1948) 2930 40 54 480 758 2410 3900 4140 7470 9920
2026-05-07 18:00 9.42 1260 11400 (2017) 40 (1948) 2930 40 54 480 758 2410 3900 4140 7470 9920
2026-05-07 17:30 9.44 1260 11400 (2017) 40 (1948) 2930 40 54 480 758 2410 3900 4140 7470 9920
2026-05-07 17:00 9.48 1270 11400 (2017) 40 (1948) 2930 40 54 480 758 2410 3900 4140 7470 9920
2026-05-07 16:30 9.51 1270 11400 (2017) 40 (1948) 2930 40 54 480 758 2410 3900 4140 7470 9920
2026-05-07 16:00 9.56 1280 11400 (2017) 40 (1948) 2930 40 54 480 758 2410 3900 4140 7470 9920
2026-05-07 15:30 9.59 1290 11400 (2017) 40 (1948) 2930 40 54 480 758 2410 3900 4140 7470 9920
2026-05-07 15:00 9.64 1300 11400 (2017) 40 (1948) 2930 40 54 480 758 2410 3900 4140 7470 9920
2026-05-07 14:30 9.70 1310 11400 (2017) 40 (1948) 2930 40 54 480 758 2410 3900 4140 7470 9920
2026-05-07 14:00 9.75 1320 11400 (2017) 40 (1948) 2930 40 54 480 758 2410 3900 4140 7470 9920
2026-05-07 13:30 9.81 1340 11400 (2017) 40 (1948) 2930 40 54 480 758 2410 3900 4140 7470 9920
2026-05-07 13:00 9.88 1350 11400 (2017) 40 (1948) 2930 40 54 480 758 2410 3900 4140 7470 9920
2026-05-07 12:30 9.96 1370 11400 (2017) 40 (1948) 2930 40 54 480 758 2410 3900 4140 7470 9920
2026-05-07 12:00 10.06 1390 11400 (2017) 40 (1948) 2930 40 54 480 758 2410 3900 4140 7470 9920
2026-05-07 11:30 10.16 1410 11400 (2017) 40 (1948) 2930 40 54 480 758 2410 3900 4140 7470 9920
2026-05-07 11:00 10.31 1440 11400 (2017) 40 (1948) 2930 40 54 480 758 2410 3900 4140 7470 9920
2026-05-07 10:30 10.51 1480 11400 (2017) 40 (1948) 2930 40 54 480 758 2410 3900 4140 7470 9920
2026-05-07 10:00 10.51 1480 11400 (2017) 40 (1948) 2930 40 54 480 758 2410 3900 4140 7470 9920
2026-05-07 09:30 10.52 1480 11400 (2017) 40 (1948) 2930 40 54 480 758 2410 3900 4140 7470 9920
2026-05-07 09:00 10.51 1480 11400 (2017) 40 (1948) 2930 40 54 480 758 2410 3900 4140 7470 9920
2026-05-07 08:30 10.52 1480 11400 (2017) 40 (1948) 2930 40 54 480 758 2410 3900 4140 7470 9920
2026-05-07 08:00 10.52 1480 11400 (2017) 40 (1948) 2930 40 54 480 758 2410 3900 4140 7470 9920
2026-05-07 07:30 10.53 1490 11400 (2017) 40 (1948) 2930 40 54 480 758 2410 3900 4140 7470 9920
2026-05-07 07:00 10.53 1490 11400 (2017) 40 (1948) 2930 40 54 480 758 2410 3900 4140 7470 9920
2026-05-07 06:30 10.54 1490 11400 (2017) 40 (1948) 2930 40 54 480 758 2410 3900 4140 7470 9920
2026-05-07 06:00 10.54 1490 11400 (2017) 40 (1948) 2930 40 54 480 758 2410 3900 4140 7470 9920
2026-05-07 05:30 10.55 1490 11400 (2017) 40 (1948) 2930 40 54 480 758 2410 3900 4140 7470 9920
2026-05-07 05:00 10.56 1490 11400 (2017) 40 (1948) 2930 40 54 480 758 2410 3900 4140 7470 9920
2026-05-07 04:30 10.56 1490 11400 (2017) 40 (1948) 2930 40 54 480 758 2410 3900 4140 7470 9920
2026-05-07 04:00 10.57 1500 11400 (2017) 40 (1948) 2930 40 54 480 758 2410 3900 4140 7470 9920
2026-05-07 03:30 10.58 1500 11400 (2017) 40 (1948) 2930 40 54 480 758 2410 3900 4140 7470 9920
2026-05-07 03:00 10.58 1500 11400 (2017) 40 (1948) 2930 40 54 480 758 2410 3900 4140 7470 9920
2026-05-07 02:30 10.60 1500 11400 (2017) 40 (1948) 2930 40 54 480 758 2410 3900 4140 7470 9920
2026-05-07 02:00 10.60 1500 11400 (2017) 40 (1948) 2930 40 54 480 758 2410 3900 4140 7470 9920
2026-05-07 01:30 10.61 1500 11400 (2017) 40 (1948) 2930 40 54 480 758 2410 3900 4140 7470 9920
2026-05-07 01:00 10.62 1510 11400 (2017) 40 (1948) 2930 40 54 480 758 2410 3900 4140 7470 9920
2026-05-07 00:30 10.63 1510 11400 (2017) 40 (1948) 2930 40 54 480 758 2410 3900 4140 7470 9920
2026-05-07 00:00 10.64 1510 11400 (2017) 40 (1948) 2930 40 54 480 758 2410 3900 4140 7470 9920
2026-05-06 23:30 10.65 1510 11400 (2017) 40 (1948) 2930 40 54 480 758 2410 3900 4140 7470 9920
2026-05-06 23:00 10.66 1510 11400 (2017) 40 (1948) 2930 40 54 480 758 2410 3900 4140 7470 9920
2026-05-06 22:30 10.69 1520 13500 (2017) 40 (1948) 2930 40 44 415 722 2410 3800 4240 7570 10100
2026-05-06 22:00 10.69 1520 13500 (2017) 40 (1948) 2930 40 44 415 722 2410 3800 4240 7570 10100
2026-05-06 21:30 10.71 1520 13500 (2017) 40 (1948) 2930 40 44 415 722 2410 3800 4240 7570 10100
2026-05-06 21:00 10.73 1530 13500 (2017) 40 (1948) 2930 40 44 415 722 2410 3800 4240 7570 10100
2026-05-06 20:30 10.74 1530 13500 (2017) 40 (1948) 2930 40 44 415 722 2410 3800 4240 7570 10100
2026-05-06 20:00 10.76 1530 13500 (2017) 40 (1948) 2930 40 44 415 722 2410 3800 4240 7570 10100
2026-05-06 19:30 10.78 1540 13500 (2017) 40 (1948) 2930 40 44 415 722 2410 3800 4240 7570 10100
2026-05-06 19:00 10.80 1540 13500 (2017) 40 (1948) 2930 40 44 415 722 2410 3800 4240 7570 10100
2026-05-06 18:30 10.83 1550 13500 (2017) 40 (1948) 2930 40 44 415 722 2410 3800 4240 7570 10100
2026-05-06 18:00 10.85 1550 13500 (2017) 40 (1948) 2930 40 44 415 722 2410 3800 4240 7570 10100
2026-05-06 17:30 10.89 1560 13500 (2017) 40 (1948) 2930 40 44 415 722 2410 3800 4240 7570 10100
2026-05-06 17:00 10.90 1560 13500 (2017) 40 (1948) 2930 40 44 415 722 2410 3800 4240 7570 10100
2026-05-06 16:30 10.94 1570 13500 (2017) 40 (1948) 2930 40 44 415 722 2410 3800 4240 7570 10100
2026-05-06 16:00 10.97 1580 13500 (2017) 40 (1948) 2930 40 44 415 722 2410 3800 4240 7570 10100
2026-05-06 15:30 11.02 1590 13500 (2017) 40 (1948) 2930 40 44 415 722 2410 3800 4240 7570 10100
2026-05-06 15:00 11.05 1590 13500 (2017) 40 (1948) 2930 40 44 415 722 2410 3800 4240 7570 10100
2026-05-06 14:30 11.08 1600 13500 (2017) 40 (1948) 2930 40 44 415 722 2410 3800 4240 7570 10100
2026-05-06 14:00 11.14 1610 13500 (2017) 40 (1948) 2930 40 44 415 722 2410 3800 4240 7570 10100
2026-05-06 13:30 11.19 1620 13500 (2017) 40 (1948) 2930 40 44 415 722 2410 3800 4240 7570 10100
2026-05-06 13:00 11.25 1630 13500 (2017) 40 (1948) 2930 40 44 415 722 2410 3800 4240 7570 10100
2026-05-06 12:30 11.31 1650 13500 (2017) 40 (1948) 2930 40 44 415 722 2410 3800 4240 7570 10100
2026-05-06 12:00 11.38 1660 13500 (2017) 40 (1948) 2930 40 44 415 722 2410 3800 4240 7570 10100
2026-05-06 11:30 11.47 1680 13500 (2017) 40 (1948) 2930 40 44 415 722 2410 3800 4240 7570 10100
2026-05-06 11:00 11.56 1700 13500 (2017) 40 (1948) 2930 40 44 415 722 2410 3800 4240 7570 10100
2026-05-06 10:30 11.67 1720 13500 (2017) 40 (1948) 2930 40 44 415 722 2410 3800 4240 7570 10100
2026-05-06 10:00 11.83 1760 13500 (2017) 40 (1948) 2930 40 44 415 722 2410 3800 4240 7570 10100
2026-05-06 09:30 11.94 1780 13500 (2017) 40 (1948) 2930 40 44 415 722 2410 3800 4240 7570 10100
2026-05-06 09:00 11.95 1780 13500 (2017) 40 (1948) 2930 40 44 415 722 2410 3800 4240 7570 10100
2026-05-06 08:30 11.96 1780 13500 (2017) 40 (1948) 2930 40 44 415 722 2410 3800 4240 7570 10100
2026-05-06 08:00 11.97 1790 13500 (2017) 40 (1948) 2930 40 44 415 722 2410 3800 4240 7570 10100
2026-05-06 07:30 11.98 1790 13500 (2017) 40 (1948) 2930 40 44 415 722 2410 3800 4240 7570 10100
2026-05-06 07:00 11.98 1790 13500 (2017) 40 (1948) 2930 40 44 415 722 2410 3800 4240 7570 10100
2026-05-06 06:30 11.99 1790 13500 (2017) 40 (1948) 2930 40 44 415 722 2410 3800 4240 7570 10100
2026-05-06 06:00 11.98 1790 13500 (2017) 40 (1948) 2930 40 44 415 722 2410 3800 4240 7570 10100
2026-05-06 05:30 12.00 1790 13500 (2017) 40 (1948) 2930 40 44 415 722 2410 3800 4240 7570 10100
2026-05-06 05:00 12.00 1790 13500 (2017) 40 (1948) 2930 40 44 415 722 2410 3800 4240 7570 10100
2026-05-06 04:30 12.01 1790 13500 (2017) 40 (1948) 2930 40 44 415 722 2410 3800 4240 7570 10100
2026-05-06 04:00 12.02 1800 13500 (2017) 40 (1948) 2930 40 44 415 722 2410 3800 4240 7570 10100
2026-05-06 03:30 12.03 1800 13500 (2017) 40 (1948) 2930 40 44 415 722 2410 3800 4240 7570 10100
2026-05-06 03:00 12.03 1800 13500 (2017) 40 (1948) 2930 40 44 415 722 2410 3800 4240 7570 10100
2026-05-06 02:30 12.04 1800 13500 (2017) 40 (1948) 2930 40 44 415 722 2410 3800 4240 7570 10100
2026-05-06 02:00 12.05 1800 13500 (2017) 40 (1948) 2930 40 44 415 722 2410 3800 4240 7570 10100
2026-05-06 01:30 12.05 1800 13500 (2017) 40 (1948) 2930 40 44 415 722 2410 3800 4240 7570 10100
2026-05-06 01:00 12.06 1800 13500 (2017) 40 (1948) 2930 40 44 415 722 2410 3800 4240 7570 10100
2026-05-06 00:30 12.06 1800 13500 (2017) 40 (1948) 2930 40 44 415 722 2410 3800 4240 7570 10100
2026-05-06 00:00 12.07 1810 13500 (2017) 40 (1948) 2930 40 44 415 722 2410 3800 4240 7570 10100
2026-05-05 23:30 12.08 1810 13500 (2017) 40 (1948) 2930 40 44 415 722 2410 3800 4240 7570 10100
2026-05-05 23:00 12.09 1810 13500 (2017) 40 (1948) 2930 40 44 415 722 2410 3800 4240 7570 10100
2026-05-05 22:30 12.09 1810 14400 (2011) 40 (1949) 2980 40 45 352 805 2270 3830 4090 7600 10100
2026-05-05 22:00 12.12 1820 14400 (2011) 40 (1949) 2980 40 45 352 805 2270 3830 4090 7600 10100
2026-05-05 21:30 12.12 1820 14400 (2011) 40 (1949) 2980 40 45 352 805 2270 3830 4090 7600 10100
2026-05-05 21:00 12.13 1820 14400 (2011) 40 (1949) 2980 40 45 352 805 2270 3830 4090 7600 10100
2026-05-05 20:30 12.15 1820 14400 (2011) 40 (1949) 2980 40 45 352 805 2270 3830 4090 7600 10100
2026-05-05 20:00 12.17 1830 14400 (2011) 40 (1949) 2980 40 45 352 805 2270 3830 4090 7600 10100
2026-05-05 19:30 12.18 1830 14400 (2011) 40 (1949) 2980 40 45 352 805 2270 3830 4090 7600 10100
2026-05-05 19:00 12.21 1840 14400 (2011) 40 (1949) 2980 40 45 352 805 2270 3830 4090 7600 10100
2026-05-05 18:30 12.23 1840 14400 (2011) 40 (1949) 2980 40 45 352 805 2270 3830 4090 7600 10100
2026-05-05 18:00 12.24 1840 14400 (2011) 40 (1949) 2980 40 45 352 805 2270 3830 4090 7600 10100
2026-05-05 17:30 12.27 1850 14400 (2011) 40 (1949) 2980 40 45 352 805 2270 3830 4090 7600 10100
2026-05-05 17:00 12.29 1850 14400 (2011) 40 (1949) 2980 40 45 352 805 2270 3830 4090 7600 10100
2026-05-05 16:30 12.32 1860 14400 (2011) 40 (1949) 2980 40 45 352 805 2270 3830 4090 7600 10100
2026-05-05 16:00 12.33 1860 14400 (2011) 40 (1949) 2980 40 45 352 805 2270 3830 4090 7600 10100
2026-05-05 15:30 12.36 1870 14400 (2011) 40 (1949) 2980 40 45 352 805 2270 3830 4090 7600 10100
2026-05-05 15:00 12.39 1880 14400 (2011) 40 (1949) 2980 40 45 352 805 2270 3830 4090 7600 10100
2026-05-05 14:30 12.42 1880 14400 (2011) 40 (1949) 2980 40 45 352 805 2270 3830 4090 7600 10100
2026-05-05 14:00 12.46 1890 14400 (2011) 40 (1949) 2980 40 45 352 805 2270 3830 4090 7600 10100
2026-05-05 13:30 12.48 1890 14400 (2011) 40 (1949) 2980 40 45 352 805 2270 3830 4090 7600 10100
2026-05-05 13:00 12.55 1910 14400 (2011) 40 (1949) 2980 40 45 352 805 2270 3830 4090 7600 10100
2026-05-05 12:30 12.59 1920 14400 (2011) 40 (1949) 2980 40 45 352 805 2270 3830 4090 7600 10100
2026-05-05 12:00 12.65 1930 14400 (2011) 40 (1949) 2980 40 45 352 805 2270 3830 4090 7600 10100
2026-05-05 11:30 12.70 1940 14400 (2011) 40 (1949) 2980 40 45 352 805 2270 3830 4090 7600 10100
2026-05-05 11:00 12.76 1960 14400 (2011) 40 (1949) 2980 40 45 352 805 2270 3830 4090 7600 10100
2026-05-05 10:30 12.84 1970 14400 (2011) 40 (1949) 2980 40 45 352 805 2270 3830 4090 7600 10100
2026-05-05 10:00 12.93 1990 14400 (2011) 40 (1949) 2980 40 45 352 805 2270 3830 4090 7600 10100
2026-05-05 09:30 13.08 2030 14400 (2011) 40 (1949) 2980 40 45 352 805 2270 3830 4090 7600 10100
2026-05-05 09:00 13.21 2070 14400 (2011) 40 (1949) 2980 40 45 352 805 2270 3830 4090 7600 10100
2026-05-05 08:30 13.22 2070 14400 (2011) 40 (1949) 2980 40 45 352 805 2270 3830 4090 7600 10100
2026-05-05 08:00 13.23 2070 14400 (2011) 40 (1949) 2980 40 45 352 805 2270 3830 4090 7600 10100
2026-05-05 07:30 13.22 2070 14400 (2011) 40 (1949) 2980 40 45 352 805 2270 3830 4090 7600 10100
2026-05-05 07:00 13.20 2070 14400 (2011) 40 (1949) 2980 40 45 352 805 2270 3830 4090 7600 10100
2026-05-05 06:30 13.20 2070 14400 (2011) 40 (1949) 2980 40 45 352 805 2270 3830 4090 7600 10100
2026-05-05 06:00 13.20 2070 14400 (2011) 40 (1949) 2980 40 45 352 805 2270 3830 4090 7600 10100
2026-05-05 05:30 13.19 2060 14400 (2011) 40 (1949) 2980 40 45 352 805 2270 3830 4090 7600 10100
2026-05-05 05:00 13.19 2060 14400 (2011) 40 (1949) 2980 40 45 352 805 2270 3830 4090 7600 10100
2026-05-05 04:30 13.18 2060 14400 (2011) 40 (1949) 2980 40 45 352 805 2270 3830 4090 7600 10100
2026-05-05 04:00 13.19 2060 14400 (2011) 40 (1949) 2980 40 45 352 805 2270 3830 4090 7600 10100
2026-05-05 03:30 13.19 2060 14400 (2011) 40 (1949) 2980 40 45 352 805 2270 3830 4090 7600 10100
2026-05-05 03:00 13.18 2060 14400 (2011) 40 (1949) 2980 40 45 352 805 2270 3830 4090 7600 10100
2026-05-05 02:30 13.19 2060 14400 (2011) 40 (1949) 2980 40 45 352 805 2270 3830 4090 7600 10100
2026-05-05 02:00 13.19 2060 14400 (2011) 40 (1949) 2980 40 45 352 805 2270 3830 4090 7600 10100
2026-05-05 01:30 13.19 2060 14400 (2011) 40 (1949) 2980 40 45 352 805 2270 3830 4090 7600 10100
2026-05-05 01:00 13.20 2070 14400 (2011) 40 (1949) 2980 40 45 352 805 2270 3830 4090 7600 10100
2026-05-05 00:30 13.19 2060 14400 (2011) 40 (1949) 2980 40 45 352 805 2270 3830 4090 7600 10100
2026-05-05 00:00 13.19 2060 14400 (2011) 40 (1949) 2980 40 45 352 805 2270 3830 4090 7600 10100
2026-05-04 23:30 13.19 2060 14400 (2011) 40 (1949) 2980 40 45 352 805 2270 3830 4090 7600 10100
2026-05-04 23:00 13.17 2060 14400 (2011) 40 (1949) 2980 40 45 352 805 2270 3830 4090 7600 10100
2026-05-04 22:30 13.17 2060 20300 (2011) 40 (1949) 3070 40 45 457 695 2300 3810 4070 8060 10100
2026-05-04 22:00 13.17 2060 20300 (2011) 40 (1949) 3070 40 45 457 695 2300 3810 4070 8060 10100
2026-05-04 21:30 13.17 2060 20300 (2011) 40 (1949) 3070 40 45 457 695 2300 3810 4070 8060 10100
2026-05-04 21:00 13.16 2050 20300 (2011) 40 (1949) 3070 40 45 457 695 2300 3810 4070 8060 10100
2026-05-04 20:30 13.17 2060 20300 (2011) 40 (1949) 3070 40 45 457 695 2300 3810 4070 8060 10100
2026-05-04 20:00 13.17 2060 20300 (2011) 40 (1949) 3070 40 45 457 695 2300 3810 4070 8060 10100
2026-05-04 19:30 13.16 2050 20300 (2011) 40 (1949) 3070 40 45 457 695 2300 3810 4070 8060 10100
2026-05-04 19:00 13.17 2060 20300 (2011) 40 (1949) 3070 40 45 457 695 2300 3810 4070 8060 10100
2026-05-04 18:30 13.17 2060 20300 (2011) 40 (1949) 3070 40 45 457 695 2300 3810 4070 8060 10100
2026-05-04 18:00 13.16 2050 20300 (2011) 40 (1949) 3070 40 45 457 695 2300 3810 4070 8060 10100
2026-05-04 17:30 13.15 2050 20300 (2011) 40 (1949) 3070 40 45 457 695 2300 3810 4070 8060 10100
2026-05-04 17:00 13.14 2050 20300 (2011) 40 (1949) 3070 40 45 457 695 2300 3810 4070 8060 10100
2026-05-04 16:30 13.15 2050 20300 (2011) 40 (1949) 3070 40 45 457 695 2300 3810 4070 8060 10100
2026-05-04 16:00 13.13 2050 20300 (2011) 40 (1949) 3070 40 45 457 695 2300 3810 4070 8060 10100
2026-05-04 15:30 13.14 2050 20300 (2011) 40 (1949) 3070 40 45 457 695 2300 3810 4070 8060 10100
2026-05-04 15:00 13.12 2040 20300 (2011) 40 (1949) 3070 40 45 457 695 2300 3810 4070 8060 10100
2026-05-04 14:30 13.13 2050 20300 (2011) 40 (1949) 3070 40 45 457 695 2300 3810 4070 8060 10100
2026-05-04 14:00 13.12 2040 20300 (2011) 40 (1949) 3070 40 45 457 695 2300 3810 4070 8060 10100
2026-05-04 13:30 13.11 2040 20300 (2011) 40 (1949) 3070 40 45 457 695 2300 3810 4070 8060 10100
2026-05-04 13:00 13.12 2040 20300 (2011) 40 (1949) 3070 40 45 457 695 2300 3810 4070 8060 10100
2026-05-04 12:30 13.11 2040 20300 (2011) 40 (1949) 3070 40 45 457 695 2300 3810 4070 8060 10100
2026-05-04 12:00 13.09 2030 20300 (2011) 40 (1949) 3070 40 45 457 695 2300 3810 4070 8060 10100
2026-05-04 11:30 13.08 2030 20300 (2011) 40 (1949) 3070 40 45 457 695 2300 3810 4070 8060 10100
2026-05-04 11:00 13.08 2030 20300 (2011) 40 (1949) 3070 40 45 457 695 2300 3810 4070 8060 10100
2026-05-04 10:30 13.06 2030 20300 (2011) 40 (1949) 3070 40 45 457 695 2300 3810 4070 8060 10100
2026-05-04 10:00 13.05 2020 20300 (2011) 40 (1949) 3070 40 45 457 695 2300 3810 4070 8060 10100
2026-05-04 09:30 13.05 2020 20300 (2011) 40 (1949) 3070 40 45 457 695 2300 3810 4070 8060 10100
2026-05-04 09:00 13.02 2010 20300 (2011) 40 (1949) 3070 40 45 457 695 2300 3810 4070 8060 10100
2026-05-04 08:30 13.02 2010 20300 (2011) 40 (1949) 3070 40 45 457 695 2300 3810 4070 8060 10100
2026-05-04 08:00 13.00 2010 20300 (2011) 40 (1949) 3070 40 45 457 695 2300 3810 4070 8060 10100
2026-05-04 07:30 13.00 2010 20300 (2011) 40 (1949) 3070 40 45 457 695 2300 3810 4070 8060 10100
2026-05-04 07:00 12.98 2000 20300 (2011) 40 (1949) 3070 40 45 457 695 2300 3810 4070 8060 10100
2026-05-04 06:30 12.96 2000 20300 (2011) 40 (1949) 3070 40 45 457 695 2300 3810 4070 8060 10100
2026-05-04 06:00 12.95 2000 20300 (2011) 40 (1949) 3070 40 45 457 695 2300 3810 4070 8060 10100
2026-05-04 05:30 12.92 1990 20300 (2011) 40 (1949) 3070 40 45 457 695 2300 3810 4070 8060 10100
2026-05-04 05:00 12.90 1990 20300 (2011) 40 (1949) 3070 40 45 457 695 2300 3810 4070 8060 10100
2026-05-04 04:30 12.90 1990 20300 (2011) 40 (1949) 3070 40 45 457 695 2300 3810 4070 8060 10100
2026-05-04 04:00 12.87 1980 20300 (2011) 40 (1949) 3070 40 45 457 695 2300 3810 4070 8060 10100
2026-05-04 03:30 12.83 1970 20300 (2011) 40 (1949) 3070 40 45 457 695 2300 3810 4070 8060 10100
2026-05-04 03:00 12.80 1960 20300 (2011) 40 (1949) 3070 40 45 457 695 2300 3810 4070 8060 10100
2026-05-04 02:30 12.78 1960 20300 (2011) 40 (1949) 3070 40 45 457 695 2300 3810 4070 8060 10100
2026-05-04 02:00 12.75 1950 20300 (2011) 40 (1949) 3070 40 45 457 695 2300 3810 4070 8060 10100
2026-05-04 01:30 12.73 1950 20300 (2011) 40 (1949) 3070 40 45 457 695 2300 3810 4070 8060 10100
2026-05-04 01:00 12.69 1940 20300 (2011) 40 (1949) 3070 40 45 457 695 2300 3810 4070 8060 10100
2026-05-04 00:30 12.66 1930 20300 (2011) 40 (1949) 3070 40 45 457 695 2300 3810 4070 8060 10100
2026-05-04 00:00 12.61 1920 20300 (2011) 40 (1949) 3070 40 45 457 695 2300 3810 4070 8060 10100
2026-05-03 23:30 12.56 1910 20300 (2011) 40 (1949) 3070 40 45 457 695 2300 3810 4070 8060 10100
2026-05-03 23:00 12.51 1900 20300 (2011) 40 (1949) 3070 40 45 457 695 2300 3810 4070 8060 10100
2026-05-03 22:30 12.46 1890 25600 (2011) 40 (1949) 3130 40 40 340 518 2380 3830 3850 8160 10200
2026-05-03 22:00 12.40 1880 25600 (2011) 40 (1949) 3130 40 40 340 518 2380 3830 3850 8160 10200
2026-05-03 21:30 12.32 1860 25600 (2011) 40 (1949) 3130 40 40 340 518 2380 3830 3850 8160 10200
2026-05-03 21:00 12.27 1850 25600 (2011) 40 (1949) 3130 40 40 340 518 2380 3830 3850 8160 10200
2026-05-03 20:30 12.18 1830 25600 (2011) 40 (1949) 3130 40 40 340 518 2380 3830 3850 8160 10200
2026-05-03 20:00 12.11 1820 25600 (2011) 40 (1949) 3130 40 40 340 518 2380 3830 3850 8160 10200
2026-05-03 19:30 12.02 1800 25600 (2011) 40 (1949) 3130 40 40 340 518 2380 3830 3850 8160 10200
2026-05-03 19:00 11.92 1770 25600 (2011) 40 (1949) 3130 40 40 340 518 2380 3830 3850 8160 10200
2026-05-03 18:30 11.81 1750 25600 (2011) 40 (1949) 3130 40 40 340 518 2380 3830 3850 8160 10200
2026-05-03 18:00 11.69 1730 25600 (2011) 40 (1949) 3130 40 40 340 518 2380 3830 3850 8160 10200
2026-05-03 17:30 11.54 1690 25600 (2011) 40 (1949) 3130 40 40 340 518 2380 3830 3850 8160 10200
2026-05-03 17:00 11.37 1660 25600 (2011) 40 (1949) 3130 40 40 340 518 2380 3830 3850 8160 10200
2026-05-03 16:30 11.21 1630 25600 (2011) 40 (1949) 3130 40 40 340 518 2380 3830 3850 8160 10200
2026-05-03 16:00 11.01 1580 25600 (2011) 40 (1949) 3130 40 40 340 518 2380 3830 3850 8160 10200
2026-05-03 15:30 10.77 1540 25600 (2011) 40 (1949) 3130 40 40 340 518 2380 3830 3850 8160 10200
2026-05-03 15:00 10.51 1480 25600 (2011) 40 (1949) 3130 40 40 340 518 2380 3830 3850 8160 10200
2026-05-03 14:30 10.15 1410 25600 (2011) 40 (1949) 3130 40 40 340 518 2380 3830 3850 8160 10200
2026-05-03 14:00 9.70 1310 25600 (2011) 40 (1949) 3130 40 40 340 518 2380 3830 3850 8160 10200
2026-05-03 13:30 9.10 1190 25600 (2011) 40 (1949) 3130 40 40 340 518 2380 3830 3850 8160 10200
2026-05-03 13:00 8.13 1010 25600 (2011) 40 (1949) 3130 40 40 340 518 2380 3830 3850 8160 10200
2026-05-03 12:30 7.92 967 25600 (2011) 40 (1949) 3130 40 40 340 518 2380 3830 3850 8160 10200
2026-05-03 12:00 7.95 973 25600 (2011) 40 (1949) 3130 40 40 340 518 2380 3830 3850 8160 10200
2026-05-03 11:30 7.99 980 25600 (2011) 40 (1949) 3130 40 40 340 518 2380 3830 3850 8160 10200
2026-05-03 11:00 8.02 985 25600 (2011) 40 (1949) 3130 40 40 340 518 2380 3830 3850 8160 10200
2026-05-03 10:30 8.05 991 25600 (2011) 40 (1949) 3130 40 40 340 518 2380 3830 3850 8160 10200
2026-05-03 10:00 8.10 1000 25600 (2011) 40 (1949) 3130 40 40 340 518 2380 3830 3850 8160 10200
2026-05-03 09:30 8.15 1010 25600 (2011) 40 (1949) 3130 40 40 340 518 2380 3830 3850 8160 10200
2026-05-03 09:00 8.20 1020 25600 (2011) 40 (1949) 3130 40 40 340 518 2380 3830 3850 8160 10200
2026-05-03 08:30 8.26 1030 25600 (2011) 40 (1949) 3130 40 40 340 518 2380 3830 3850 8160 10200
2026-05-03 08:00 8.32 1040 25600 (2011) 40 (1949) 3130 40 40 340 518 2380 3830 3850 8160 10200
2026-05-03 07:30 8.38 1050 25600 (2011) 40 (1949) 3130 40 40 340 518 2380 3830 3850 8160 10200
2026-05-03 07:00 8.45 1070 25600 (2011) 40 (1949) 3130 40 40 340 518 2380 3830 3850 8160 10200
2026-05-03 06:30 8.52 1080 25600 (2011) 40 (1949) 3130 40 40 340 518 2380 3830 3850 8160 10200
2026-05-03 06:00 8.59 1090 25600 (2011) 40 (1949) 3130 40 40 340 518 2380 3830 3850 8160 10200
2026-05-03 05:30 8.67 1110 25600 (2011) 40 (1949) 3130 40 40 340 518 2380 3830 3850 8160 10200
2026-05-03 05:00 8.76 1130 25600 (2011) 40 (1949) 3130 40 40 340 518 2380 3830 3850 8160 10200
2026-05-03 04:30 8.85 1140 25600 (2011) 40 (1949) 3130 40 40 340 518 2380 3830 3850 8160 10200
2026-05-03 04:00 8.95 1160 25600 (2011) 40 (1949) 3130 40 40 340 518 2380 3830 3850 8160 10200
2026-05-03 03:30 9.05 1180 25600 (2011) 40 (1949) 3130 40 40 340 518 2380 3830 3850 8160 10200
2026-05-03 03:00 9.16 1200 25600 (2011) 40 (1949) 3130 40 40 340 518 2380 3830 3850 8160 10200
2026-05-03 02:30 9.28 1230 25600 (2011) 40 (1949) 3130 40 40 340 518 2380 3830 3850 8160 10200
2026-05-03 02:00 9.41 1250 25600 (2011) 40 (1949) 3130 40 40 340 518 2380 3830 3850 8160 10200
2026-05-03 01:30 9.54 1280 25600 (2011) 40 (1949) 3130 40 40 340 518 2380 3830 3850 8160 10200
2026-05-03 01:00 9.68 1310 25600 (2011) 40 (1949) 3130 40 40 340 518 2380 3830 3850 8160 10200
2026-05-03 00:30 9.84 1340 25600 (2011) 40 (1949) 3130 40 40 340 518 2380 3830 3850 8160 10200
2026-05-03 00:00 1 1380 25600 (2011) 40 (1949) 3130 40 40 340 518 2380 3830 3850 8160 10200
2026-05-02 23:30 10.18 1410 25600 (2011) 40 (1949) 3130 40 40 340 518 2380 3830 3850 8160 10200
2026-05-02 23:00 10.37 1450 25600 (2011) 40 (1949) 3130 40 40 340 518 2380 3830 3850 8160 10200

A total of 362 rows are displayed for years 1942 through 2025.